Rosslare, Ireland
Current Conditions -  °F | °C
As of 3:00 PM on Sunday 21 Dec 2014 (Local Time) from EIWF Reporting Station
Broken Clouds Broken Clouds  
Wind Chill: 52°   Ceiling: 300
Heat Index: 52°   Visibility: 5mi
Dew Point: 50°   Wind: 15mph
Humidity: 94%   Direction: 260°W
Pressure: 30.12"   Gusts: 29mph
Location:  52.27°N, 6.39°W
Report Text: EIWF 211500Z 26013G25KT 210V300 8000 BKN003 11/10 Q1020 R21/1/////
Loading
Personal Weather Stations






























Interactive Weather Map New forecast layout! Learn more

10-Day Weather Forecast

Advertisements
Track Severe Weather on mobile